Piedmont, South Carolina
Current Conditions -  °F | °C
As of 11:55 PM on Saturday 22 Nov 2014 (Local Time) from KGYH Reporting Station
Overcast Overcast  
Wind Chill: 45°   Ceiling: 4000
Heat Index: 45°   Visibility: 10mi
Dew Point: 19°   Wind: 3mph
Humidity: 37%   Direction: 50°NE
Pressure: 30.29"   Gusts: NA
Location:  34.7°N, 82.46°W
Report Text: KGYH 230455Z AUTO 05003KT 10SM OVC040 07/M07 A3029 RMK AO2
Loading
Personal Weather Stations






























Interactive Weather Map New forecast layout! Learn more

10-Day Weather Forecast

Advertisements
Track Severe Weather on mobile